Time;durP1;ratioP1;P1;durP2;ratioP2;P2;SDS_P1;SDS_P2;PMS_P1;PMS_P2;Temp;Humidity;BMP_temperature;BMP_pressure;BME280_temperature;BME280_humidity;BME280_pressure;Samples;Min_cycle;Max_cycle;Signal;HPM_P1;HPM_P2
2021/04/08 00:00:13;;;;;;;6.77;3.40;;;;;;;2.73;70.48;99402.19;5061566;28;44778;-74
2021/04/08 00:02:42;;;;;;;10.53;4.27;;;;;;;2.70;70.17;99394.44;5061140;28;43090;-73
2021/04/08 00:05:11;;;;;;;4.90;3.57;;;;;;;2.71;70.15;99404.88;5076478;28;39906;-75
2021/04/08 00:07:38;;;;;;;5.60;3.27;;;;;;;2.72;70.22;99403.94;5057924;28;43132;-74
2021/04/08 00:10:07;;;;;;;8.30;2.83;;;;;;;2.72;69.88;99413.59;5047992;28;42875;-73
2021/04/08 00:12:34;;;;;;;5.27;3.20;;;;;;;2.71;69.67;99409.25;5048495;28;42328;-74
2021/04/08 00:15:01;;;;;;;5.03;3.20;;;;;;;2.73;69.89;99407.44;5047028;28;40918;-74
2021/04/08 00:17:28;;;;;;;7.53;3.87;;;;;;;2.73;69.69;99412.66;5047837;28;41291;-74
2021/04/08 00:19:56;;;;;;;8.33;3.47;;;;;;;2.72;69.69;99414.41;5047352;28;42806;-73
2021/04/08 00:22:23;;;;;;;6.50;3.93;;;;;;;2.73;69.70;99413.50;5047673;28;42499;-73
2021/04/08 00:24:50;;;;;;;11.90;4.27;;;;;;;2.73;69.71;99412.66;5063511;28;39247;-74
2021/04/08 00:27:17;;;;;;;6.77;3.67;;;;;;;2.75;69.59;99423.94;5064198;28;41262;-74
2021/04/08 00:29:44;;;;;;;6.23;3.47;;;;;;;2.77;69.68;99422.16;5046584;28;43743;-73
2021/04/08 00:32:11;;;;;;;6.83;3.40;;;;;;;2.77;69.73;99423.03;5062483;28;41862;-74
2021/04/08 00:34:39;;;;;;;7.43;3.80;;;;;;;2.74;69.77;99422.22;5048804;28;41017;-74
2021/04/08 00:37:05;;;;;;;6.10;3.77;;;;;;;2.77;69.74;99427.41;5047536;28;41726;-74
2021/04/08 00:39:32;;;;;;;8.13;4.07;;;;;;;2.80;69.77;99441.28;5048163;28;42977;-75
2021/04/08 00:41:59;;;;;;;7.47;3.83;;;;;;;2.80;70.01;99437.78;5047311;28;42383;-74
2021/04/08 00:44:26;;;;;;;5.80;3.90;;;;;;;2.81;69.74;99442.13;5063573;28;39549;-75
2021/04/08 00:46:53;;;;;;;7.40;3.70;;;;;;;2.85;69.68;99438.53;5046864;28;41396;-72
2021/04/08 00:49:19;;;;;;;7.60;4.10;;;;;;;2.88;69.39;99443.72;5062994;28;43653;-74
2021/04/08 00:51:47;;;;;;;6.67;3.43;;;;;;;2.91;69.32;99443.66;5046746;28;41074;-73
2021/04/08 00:54:14;;;;;;;7.77;3.40;;;;;;;2.93;69.32;99441.88;5063389;28;39436;-74
2021/04/08 00:56:41;;;;;;;8.80;4.07;;;;;;;2.97;69.01;99453.13;5047942;28;41789;-74
2021/04/08 00:59:08;;;;;;;5.93;3.50;;;;;;;2.98;68.80;99449.59;5064924;28;43362;-73
2021/04/08 01:01:35;;;;;;;8.53;3.77;;;;;;;3.00;68.71;99459.13;5050790;28;42399;-73
2021/04/08 01:04:02;;;;;;;7.17;3.60;;;;;;;3.00;68.22;99460.88;5051687;28;41044;-73
2021/04/08 01:06:29;;;;;;;7.90;4.00;;;;;;;2.98;68.32;99455.69;5051152;28;42660;-74
2021/04/08 01:08:57;;;;;;;6.40;3.33;;;;;;;2.95;68.40;99458.41;5066529;28;43383;-73
2021/04/08 01:11:25;;;;;;;6.00;4.00;;;;;;;2.95;67.99;99468.00;5066879;28;41845;-74
2021/04/08 01:13:52;;;;;;;5.00;3.33;;;;;;;2.92;68.07;99466.31;5066662;28;40402;-73
2021/04/08 01:16:27;;;;;;;7.13;3.53;;;;;;;2.92;67.75;99468.91;5050108;28;42156;-73
2021/04/08 01:19:01;;;;;;;5.30;3.10;;;;;;;2.91;67.54;99467.19;5050643;28;43839;-74
2021/04/08 01:21:37;;;;;;;7.03;3.40;;;;;;;2.87;67.12;99468.16;5049606;28;42855;-74
2021/04/08 01:24:39;;;;;;;6.43;3.50;;;;;;;2.81;67.74;99463.06;5050422;28;40095;-74
2021/04/08 01:27:45;;;;;;;6.90;3.53;;;;;;;2.72;67.96;99464.09;5050479;28;42400;-72
2021/04/08 01:30:31;;;;;;;7.27;3.37;;;;;;;2.63;67.57;99479.13;5042545;28;42347;-74
2021/04/08 01:33:01;;;;;;;7.27;3.10;;;;;;;2.46;68.13;99451.59;5047303;28;42303;-72
2021/04/08 01:35:31;;;;;;;5.70;3.07;;;;;;;2.52;68.39;99468.88;5066573;28;40214;-72
2021/04/08 01:38:09;;;;;;;6.83;3.10;;;;;;;2.44;68.43;99469.06;5050439;28;41781;-72
2021/04/08 01:40:37;;;;;;;7.20;3.60;;;;;;;2.40;67.50;99483.06;5048743;28;42435;-73
2021/04/08 01:43:07;;;;;;;5.70;3.13;;;;;;;2.36;67.71;99478.78;5050400;28;42347;-73
2021/04/08 01:45:35;;;;;;;6.87;3.23;;;;;;;2.32;67.51;99484.97;5066203;28;39508;-75
2021/04/08 01:48:06;;;;;;;8.87;3.60;;;;;;;2.28;67.62;99485.91;5066300;28;41242;-73
2021/04/08 01:50:34;;;;;;;4.93;3.03;;;;;;;2.22;67.72;99493.88;5050180;28;42867;-73
2021/04/08 01:53:04;;;;;;;8.37;3.63;;;;;;;2.16;67.98;99483.53;5050614;28;42383;-73
2021/04/08 01:55:33;;;;;;;6.73;3.27;;;;;;;2.10;67.69;99488.91;5066061;28;41517;-73
2021/04/08 01:58:01;;;;;;;7.90;3.73;;;;;;;2.05;67.81;99493.31;5050402;28;42931;-73
2021/04/08 02:00:29;;;;;;;6.03;3.43;;;;;;;2.02;67.96;99493.38;5050131;28;43851;-73
2021/04/08 02:02:57;;;;;;;7.90;3.57;;;;;;;1.97;67.65;99497.84;5049976;28;43412;-73
2021/04/08 02:05:26;;;;;;;5.23;3.20;;;;;;;1.94;67.70;99495.28;5049874;28;41161;-72
2021/04/08 02:07:56;;;;;;;7.63;3.57;;;;;;;1.91;67.77;99503.16;5048464;28;41354;-72
2021/04/08 02:10:24;;;;;;;6.10;3.50;;;;;;;1.90;67.69;99506.66;5048054;28;42490;-72
2021/04/08 02:12:52;;;;;;;5.93;3.40;;;;;;;1.87;67.40;99509.31;5049933;28;43306;-72
2021/04/08 02:15:22;;;;;;;9.77;3.87;;;;;;;1.86;67.30;99512.81;5049442;28;40859;-72
2021/04/08 02:17:53;;;;;;;8.03;4.17;;;;;;;1.83;67.47;99510.25;5048654;28;41193;-72
2021/04/08 02:20:23;;;;;;;8.23;3.83;;;;;;;1.78;67.36;99500.75;5048624;28;43454;-73
2021/04/08 02:22:55;;;;;;;8.43;3.83;;;;;;;1.79;67.03;99510.31;5048342;28;41889;-72
2021/04/08 02:25:24;;;;;;;5.07;3.60;;;;;;;1.79;66.92;99512.91;5049058;28;40468;-72
2021/04/08 02:27:51;;;;;;;6.63;3.67;;;;;;;1.78;67.19;99519.03;5049158;28;42642;-73
2021/04/08 02:30:23;;;;;;;5.63;3.37;;;;;;;1.69;67.08;99493.06;5049310;28;43061;-72
2021/04/08 02:32:51;;;;;;;4.70;3.60;;;;;;;1.76;67.15;99510.34;5049245;28;42378;-72
2021/04/08 02:35:18;;;;;;;8.57;3.67;;;;;;;1.79;67.16;99515.53;5048505;28;39725;-72
2021/04/08 02:37:46;;;;;;;7.17;3.83;;;;;;;1.77;66.76;99516.44;5049494;28;41792;-72
2021/04/08 02:40:17;;;;;;;7.73;3.60;;;;;;;1.74;66.77;99517.34;5048013;28;43694;-72
2021/04/08 02:42:44;;;;;;;5.63;3.50;;;;;;;1.65;66.78;99517.50;5049236;28;42410;-72
2021/04/08 02:45:12;;;;;;;6.77;3.83;;;;;;;1.67;66.52;99530.53;5049936;28;41763;-72
2021/04/08 02:47:39;;;;;;;6.63;3.43;;;;;;;1.65;66.73;99527.06;5048528;28;42550;-71
2021/04/08 02:50:08;;;;;;;5.27;3.90;;;;;;;1.61;66.40;99531.47;5048867;28;42788;-73
2021/04/08 02:52:42;;;;;;;5.97;3.73;;;;;;;1.59;66.73;99532.41;5049674;28;42423;-72
2021/04/08 02:55:16;;;;;;;4.70;3.37;;;;;;;1.57;66.83;99534.19;5049056;28;39986;-73
2021/04/08 02:57:52;;;;;;;4.83;3.53;;;;;;;1.60;66.82;99539.38;5049664;28;41842;-72
2021/04/08 03:00:20;;;;;;;8.43;3.60;;;;;;;1.59;66.71;99548.94;5048434;28;42877;-72
2021/04/08 03:02:51;;;;;;;6.70;3.80;;;;;;;1.55;66.93;99544.63;5048859;28;42335;-72
2021/04/08 03:05:20;;;;;;;6.73;3.53;;;;;;;1.55;66.20;99555.09;5048881;28;40099;-72
2021/04/08 03:07:51;;;;;;;5.83;3.67;;;;;;;1.54;66.34;99557.72;5064201;28;42210;-72
2021/04/08 03:10:19;;;;;;;8.50;3.67;;;;;;;1.49;65.92;99557.75;5049076;28;42841;-72
2021/04/08 03:12:49;;;;;;;5.93;3.73;;;;;;;1.34;66.12;99539.75;5048528;28;43179;-71
2021/04/08 03:15:19;;;;;;;9.27;3.50;;;;;;;1.40;66.73;99553.56;5065490;28;39155;-72
2021/04/08 03:17:48;;;;;;;10.03;3.80;;;;;;;1.35;67.00;99559.75;5048956;28;41769;-71
2021/04/08 03:20:16;;;;;;;4.37;3.13;;;;;;;1.30;66.98;99562.41;5047592;28;42321;-72
2021/04/08 03:22:44;;;;;;;5.30;3.13;;;;;;;1.29;66.44;99559.81;5049004;28;42932;-72
2021/04/08 03:25:13;;;;;;;7.87;4.03;;;;;;;1.27;66.79;99561.56;5048268;28;40735;-72
2021/04/08 03:27:41;;;;;;;10.50;4.00;;;;;;;1.24;66.77;99561.59;5048084;28;42398;-72
2021/04/08 03:30:11;;;;;;;8.47;3.80;;;;;;;1.22;66.75;99563.41;5046749;28;43485;-72
2021/04/08 03:32:38;;;;;;;5.67;3.37;;;;;;;1.22;66.77;99563.41;5048696;28;42238;-72
2021/04/08 03:35:07;;;;;;;5.60;3.53;;;;;;;1.18;66.81;99561.72;5047757;28;41003;-72
2021/04/08 03:37:35;;;;;;;5.57;3.67;;;;;;;1.17;66.63;99565.19;5048097;28;41537;-73
2021/04/08 03:40:04;;;;;;;10.10;3.93;;;;;;;1.18;66.35;99572.16;5047308;28;43690;-73
2021/04/08 03:42:32;;;;;;;8.23;3.53;;;;;;;1.18;66.30;99570.41;5048437;28;42759;-73
2021/04/08 03:44:59;;;;;;;6.77;3.70;;;;;;;1.24;66.22;99572.03;5048428;28;40046;-73
2021/04/08 03:47:27;;;;;;;7.00;3.50;;;;;;;1.15;66.46;99559.13;5064568;28;41345;-74
2021/04/08 03:49:54;;;;;;;6.50;4.00;;;;;;;1.18;66.24;99564.31;5047512;28;43358;-73
2021/04/08 03:52:22;;;;;;;5.17;3.77;;;;;;;1.21;65.98;99572.97;5048682;28;42577;-74
2021/04/08 03:54:50;;;;;;;6.30;3.40;;;;;;;1.19;66.10;99566.03;5047613;28;40427;-73
2021/04/08 03:57:19;;;;;;;9.37;3.67;;;;;;;1.15;66.12;99573.03;5048344;28;42500;-72
2021/04/08 03:59:47;;;;;;;6.23;3.67;;;;;;;1.15;66.32;99583.47;5046663;28;43704;-72
2021/04/08 04:02:15;;;;;;;5.40;3.53;;;;;;;1.10;66.25;99579.22;5048427;28;42444;-73
2021/04/08 04:04:43;;;;;;;6.83;3.50;;;;;;;0.98;66.26;99575.88;5046984;28;39709;-73
2021/04/08 04:07:11;;;;;;;5.67;3.90;;;;;;;1.05;66.64;99597.53;5047466;28;42472;-72
2021/04/08 04:09:38;;;;;;;8.77;4.33;;;;;;;1.03;66.45;99604.50;5046818;28;42127;-73
2021/04/08 04:12:06;;;;;;;8.20;3.80;;;;;;;1.01;66.34;99604.50;5046827;28;41779;-73
2021/04/08 04:14:37;;;;;;;6.93;4.10;;;;;;;0.98;66.40;99604.56;5047773;28;39951;-73
2021/04/08 04:17:24;;;;;;;6.53;3.83;;;;;;;0.94;66.50;99599.41;5047361;28;41679;-73
2021/04/08 04:19:51;;;;;;;7.17;4.27;;;;;;;0.92;66.66;99604.63;5041996;28;44022;-74
2021/04/08 04:22:18;;;;;;;9.07;4.10;;;;;;;0.89;66.56;99606.41;5046561;28;41867;-75
2021/04/08 04:24:45;;;;;;;5.60;3.77;;;;;;;0.86;66.92;99602.09;5044837;28;40600;-72
2021/04/08 04:27:12;;;;;;;9.93;4.53;;;;;;;0.85;66.93;99605.59;5045277;28;42630;-72
2021/04/08 04:29:39;;;;;;;6.57;4.20;;;;;;;0.73;66.92;99584.00;5045971;28;43378;-73
2021/04/08 04:32:09;;;;;;;6.37;4.20;;;;;;;0.77;67.01;99602.19;5046268;28;41837;-73
2021/04/08 04:34:36;;;;;;;6.87;4.77;;;;;;;0.77;67.34;99615.22;5047809;28;39530;-72
2021/04/08 04:37:03;;;;;;;8.57;4.53;;;;;;;0.74;67.35;99610.06;5050849;28;42590;-73
2021/04/08 04:39:30;;;;;;;6.80;4.27;;;;;;;0.75;67.48;99618.72;5051576;28;42317;-73
2021/04/08 04:41:58;;;;;;;6.63;4.13;;;;;;;0.71;67.50;99618.78;5051764;28;42407;-73
2021/04/08 04:44:24;;;;;;;7.97;4.73;;;;;;;0.68;67.73;99618.81;5050897;28;39997;-73
2021/04/08 04:46:52;;;;;;;5.60;3.90;;;;;;;0.67;68.01;99624.03;5051176;28;41799;-74
2021/04/08 04:49:19;;;;;;;5.90;3.70;;;;;;;0.68;68.08;99630.97;5049804;28;43698;-74
2021/04/08 04:51:47;;;;;;;9.93;4.30;;;;;;;0.64;67.86;99631.88;5050471;28;43197;-73
2021/04/08 04:54:13;;;;;;;8.63;4.13;;;;;;;0.64;67.77;99644.91;5049189;28;40664;-73
2021/04/08 04:56:40;;;;;;;6.07;3.90;;;;;;;0.61;67.87;99631.94;5050146;28;43071;-73
2021/04/08 04:59:07;;;;;;;6.83;5.80;;;;;;;0.67;67.65;99645.75;5050618;28;43461;-73
2021/04/08 05:01:34;;;;;;;6.50;4.33;;;;;;;0.69;67.74;99658.75;5050811;28;42197;-74
2021/04/08 05:04:00;;;;;;;6.30;4.43;;;;;;;0.73;67.50;99655.25;5049402;28;40788;-73
2021/04/08 05:06:27;;;;;;;8.07;4.40;;;;;;;0.82;67.53;99652.56;5050877;28;42098;-73
2021/04/08 05:08:55;;;;;;;9.53;4.43;;;;;;;1.01;67.20;99661.88;5050473;28;43623;-73
2021/04/08 05:11:22;;;;;;;6.50;4.30;;;;;;;1.18;66.91;99671.28;5049518;28;42973;-73
2021/04/08 05:13:52;;;;;;;7.80;6.23;;;;;;;1.33;66.64;99669.34;5065747;28;40401;-73
2021/04/08 05:16:19;;;;;;;15.30;10.07;;;;;;;1.35;66.47;99658.91;5050979;28;41716;-74
2021/04/08 05:18:48;;;;;;;10.57;5.43;;;;;;;1.43;65.93;99649.22;5048920;28;43349;-74
2021/04/08 05:21:15;;;;;;;7.40;4.43;;;;;;;1.55;65.72;99667.31;5050239;28;43565;-71
2021/04/08 05:23:42;;;;;;;8.97;4.30;;;;;;;1.61;66.12;99677.66;5051436;28;39988;-71
2021/04/08 05:26:10;;;;;;;8.60;4.37;;;;;;;1.68;65.40;99670.63;5050384;28;41821;-71
2021/04/08 05:28:36;;;;;;;6.73;4.50;;;;;;;1.96;65.01;99689.41;5051368;28;42760;-71
2021/04/08 05:31:04;;;;;;;9.73;4.33;;;;;;;2.32;64.34;99695.81;5065992;28;42722;-71
2021/04/08 05:33:31;;;;;;;9.43;4.83;;;;;;;2.55;63.45;99696.31;5066993;28;39675;-72
2021/04/08 05:35:58;;;;;;;9.90;4.37;;;;;;;2.60;62.89;99693.63;5049564;28;41786;-72
2021/04/08 05:38:25;;;;;;;8.50;4.73;;;;;;;2.68;62.94;99712.66;5050354;28;42859;-71
2021/04/08 05:40:52;;;;;;;10.17;4.60;;;;;;;2.63;62.92;99706.63;5050271;28;42346;-72
2021/04/08 05:43:20;;;;;;;5.40;3.97;;;;;;;2.69;62.60;99715.25;5050073;28;40160;-72
2021/04/08 05:45:49;;;;;;;5.93;3.73;;;;;;;2.83;62.69;99718.47;5048460;28;41790;-72
2021/04/08 05:48:16;;;;;;;6.17;4.33;;;;;;;2.94;62.00;99739.22;5049667;28;41927;-72
2021/04/08 05:50:43;;;;;;;7.60;4.70;;;;;;;3.03;61.67;99731.19;5065189;28;41905;-73
2021/04/08 05:53:11;;;;;;;7.80;4.63;;;;;;;3.13;61.98;99729.28;5049611;28;40021;-73
2021/04/08 05:55:38;;;;;;;9.90;4.83;;;;;;;3.18;61.61;99737.91;5045660;28;42335;-72
2021/04/08 05:58:05;;;;;;;8.03;3.97;;;;;;;3.21;61.25;99733.47;5049791;28;43719;-72
2021/04/08 06:00:32;;;;;;;8.50;5.30;;;;;;;3.23;61.37;99733.44;5044013;28;42630;-73
2021/04/08 06:02:59;;;;;;;7.30;5.10;;;;;;;3.21;60.98;99725.59;5041485;28;40925;-72
2021/04/08 06:05:26;;;;;;;12.33;7.27;;;;;;;3.28;61.14;99734.22;5044764;28;41820;-73
2021/04/08 06:07:53;;;;;;;9.80;5.67;;;;;;;3.39;61.15;99720.91;5044653;28;42343;-70
2021/04/08 06:10:20;;;;;;;7.87;4.70;;;;;;;3.56;59.98;99731.94;5039093;28;42184;-70
2021/04/08 06:12:48;;;;;;;8.70;5.50;;;;;;;3.71;59.25;99736.84;5039938;28;39818;-70
2021/04/08 06:15:16;;;;;;;7.90;4.30;;;;;;;3.96;58.67;99747.66;5044292;28;42995;-71
2021/04/08 06:17:43;;;;;;;10.07;4.87;;;;;;;4.25;58.15;99755.75;5045098;28;43563;-71
2021/04/08 06:20:12;;;;;;;7.47;4.37;;;;;;;4.36;57.54;99757.28;5040007;28;41984;-71
2021/04/08 06:22:38;;;;;;;7.17;4.63;;;;;;;4.38;57.60;99761.59;5065450;28;39380;-72
2021/04/08 06:25:07;;;;;;;9.67;5.03;;;;;;;4.33;57.47;99764.31;5055219;28;41379;-73
2021/04/08 06:27:35;;;;;;;7.27;4.93;;;;;;;4.33;57.81;99769.53;5044584;28;43508;-70
2021/04/08 06:30:02;;;;;;;5.83;4.73;;;;;;;4.33;57.87;99753.81;5045413;28;42141;-71
2021/04/08 06:32:28;;;;;;;9.20;4.90;;;;;;;4.55;58.02;99764.69;5045764;28;39935;-70
2021/04/08 06:34:56;;;;;;;8.37;5.20;;;;;;;4.96;57.82;99765.41;5058010;28;43043;-71
2021/04/08 06:37:23;;;;;;;8.17;4.07;;;;;;;5.42;56.97;99765.09;5065605;28;43519;-72
2021/04/08 06:39:50;;;;;;;13.17;5.67;;;;;;;5.56;56.27;99762.09;5048897;28;42313;-73
2021/04/08 06:42:20;;;;;;;6.93;4.47;;;;;;;5.53;55.18;99773.53;5044984;28;39853;-71
2021/04/08 06:44:49;;;;;;;9.40;5.57;;;;;;;5.57;55.23;99771.69;5044829;28;42106;-72
2021/04/08 06:47:28;;;;;;;8.90;5.13;;;;;;;5.72;54.41;99779.13;5063724;28;42448;-72
2021/04/08 06:50:04;;;;;;;10.23;4.97;;;;;;;5.95;54.43;99776.75;5061161;28;41991;-72
2021/04/08 06:52:31;;;;;;;8.03;5.13;;;;;;;6.00;53.87;99784.50;5043477;28;40863;-73
2021/04/08 06:54:59;;;;;;;9.67;5.07;;;;;;;6.11;53.63;99771.91;5054055;28;41613;-70
2021/04/08 06:57:26;;;;;;;10.97;4.93;;;;;;;6.42;52.73;99787.63;5063121;28;42377;-71
2021/04/08 06:59:53;;;;;;;10.73;5.50;;;;;;;6.56;52.59;99774.88;5053559;28;42957;-70
2021/04/08 07:02:22;;;;;;;6.37;5.07;;;;;;;6.66;52.78;99786.00;5041906;28;39582;-71
2021/04/08 07:04:49;;;;;;;9.43;5.10;;;;;;;6.72;51.59;99791.06;5045882;28;42916;-71
2021/04/08 07:07:18;;;;;;;7.20;4.93;;;;;;;6.80;51.42;99789.03;5044171;28;43779;-71
2021/04/08 07:09:44;;;;;;;8.67;4.93;;;;;;;6.96;51.48;99789.41;5064589;28;43021;-73
2021/04/08 07:12:14;;;;;;;8.17;5.13;;;;;;;7.10;51.02;99797.72;5060696;28;40162;-71
2021/04/08 07:14:41;;;;;;;9.70;5.07;;;;;;;7.27;50.49;99805.91;5060699;28;40590;-72
2021/04/08 07:17:09;;;;;;;9.87;5.23;;;;;;;7.26;50.40;99814.75;5042919;28;42669;-72
2021/04/08 07:19:37;;;;;;;7.73;4.23;;;;;;;7.34;51.01;99807.41;5045012;28;42467;-71
2021/04/08 07:22:04;;;;;;;6.93;4.63;;;;;;;7.51;50.66;99815.63;5040435;28;41504;-71
2021/04/08 07:24:41;;;;;;;10.10;4.93;;;;;;;7.85;49.33;99817.06;5052958;28;43042;-71
2021/04/08 07:27:09;;;;;;;7.10;4.77;;;;;;;8.07;49.36;99815.34;5080654;28;42364;-72
2021/04/08 07:29:52;;;;;;;8.63;4.90;;;;;;;8.45;47.89;99831.56;5068695;28;41886;-73
2021/04/08 07:32:24;;;;;;;6.63;4.77;;;;;;;8.67;47.74;99837.72;5043327;28;40577;-70
2021/04/08 07:34:55;;;;;;;7.03;4.67;;;;;;;8.98;47.95;99832.09;5063971;28;41318;-72
2021/04/08 07:37:25;;;;;;;10.00;4.53;;;;;;;9.50;46.26;99849.31;5058123;28;42432;-74
2021/04/08 07:39:54;;;;;;;10.43;4.63;;;;;;;10.11;44.40;99859.88;5044122;28;20244;-71
2021/04/08 07:42:26;;;;;;;6.57;4.30;;;;;;;11.06;44.06;99861.63;5043487;28;41538;-73
2021/04/08 07:44:55;;;;;;;8.23;4.53;;;;;;;11.74;41.70;99876.78;5043594;28;41579;-74
2021/04/08 07:47:25;;;;;;;8.03;4.33;;;;;;;12.05;41.75;99883.19;5058665;28;41958;-73
2021/04/08 07:49:53;;;;;;;11.70;4.63;;;;;;;12.18;40.21;99889.59;5064705;28;42963;-73
2021/04/08 07:52:31;;;;;;;5.17;3.70;;;;;;;12.64;40.59;99890.63;5046896;28;39977;-74
2021/04/08 07:55:15;;;;;;;5.30;3.97;;;;;;;13.02;38.79;99899.16;5042675;28;42131;-74
2021/04/08 07:57:58;;;;;;;8.30;4.07;;;;;;;13.47;37.34;99918.81;5043671;28;43812;-74
2021/04/08 08:00:27;;;;;;;5.57;4.00;;;;;;;14.14;38.07;99914.84;5040689;28;42413;-73
2021/04/08 08:02:55;;;;;;;8.20;4.33;;;;;;;15.32;34.97;99935.91;5036320;28;40054;-72
2021/04/08 08:05:25;;;;;;;6.80;4.13;;;;;;;15.40;35.17;99931.75;5036444;28;41882;-75
2021/04/08 08:07:53;;;;;;;6.67;3.60;;;;;;;17.06;32.71;99932.88;5058074;28;42278;-73
2021/04/08 08:10:24;;;;;;;7.43;3.93;;;;;;;18.20;30.52;99956.50;5042428;28;43325;-74
2021/04/08 08:12:52;;;;;;;6.07;3.60;;;;;;;19.04;29.25;99968.75;5023835;28;40173;-73
2021/04/08 08:15:23;;;;;;;6.00;3.27;;;;;;;19.07;28.27;99965.81;5027924;28;42783;-70
2021/04/08 08:17:51;;;;;;;6.77;3.50;;;;;;;18.86;27.07;99971.91;5044590;28;43733;-72
2021/04/08 08:20:18;;;;;;;5.10;3.43;;;;;;;19.26;28.12;99949.94;5044104;28;42265;-71
2021/04/08 08:22:46;;;;;;;5.33;3.53;;;;;;;20.12;28.28;99939.19;5043568;28;39480;-71
2021/04/08 08:25:15;;;;;;;5.27;3.47;;;;;;;20.84;27.17;99955.38;5044677;28;41820;-74
2021/04/08 08:27:49;;;;;;;4.83;3.00;;;;;;;20.68;26.82;99960.41;5062781;28;42465;-74
2021/04/08 08:30:19;;;;;;;10.83;8.03;;;;;;;19.84;27.23;99955.94;5071483;28;42966;-73
2021/04/08 08:33:10;;;;;;;5.17;3.90;;;;;;;19.15;27.48;99968.75;5067069;28;40812;-73
2021/04/08 08:35:38;;;;;;;5.67;4.17;;;;;;;19.05;28.06;99959.69;5057483;28;42500;-73
2021/04/08 08:38:12;;;;;;;6.83;4.07;;;;;;;19.12;27.87;99959.09;5023086;28;42953;-73
2021/04/08 08:40:40;;;;;;;6.20;3.73;;;;;;;19.72;27.84;99947.91;5026584;28;42002;-73
2021/04/08 08:43:09;;;;;;;6.47;3.53;;;;;;;20.06;26.99;99955.81;5047044;28;40477;-73
2021/04/08 08:45:37;;;;;;;8.20;3.87;;;;;;;20.21;26.12;99959.91;5046696;28;40570;-74
2021/04/08 08:48:09;;;;;;;5.53;3.17;;;;;;;20.51;26.06;99964.56;5045282;28;42879;-75
2021/04/08 08:50:38;;;;;;;5.23;3.37;;;;;;;20.98;25.87;99949.66;5064306;28;41296;-73
2021/04/08 08:53:08;;;;;;;6.97;3.63;;;;;;;21.15;25.89;99959.75;5066774;28;40545;-74
2021/04/08 08:55:36;;;;;;;5.83;3.70;;;;;;;21.39;25.89;99970.22;5063389;28;42095;-73
2021/04/08 08:58:05;;;;;;;6.87;3.97;;;;;;;21.13;25.74;99969.00;5047234;28;42691;-74
2021/04/08 09:00:33;;;;;;;7.10;3.60;;;;;;;21.02;24.63;99972.59;5046873;28;41821;-74
2021/04/08 09:03:20;;;;;;;5.50;2.90;;;;;;;20.68;25.14;99974.72;5046337;28;39287;-73
2021/04/08 09:05:47;;;;;;;4.67;3.17;;;;;;;20.57;26.44;99971.25;5060164;28;42408;-74
2021/04/08 09:08:37;;;;;;;5.63;3.30;;;;;;;20.10;25.65;99973.44;5068445;28;41732;-74
2021/04/08 09:11:05;;;;;;;5.77;3.67;;;;;;;19.77;26.58;99960.13;5052762;28;42150;-73
2021/04/08 09:13:51;;;;;;;7.40;3.43;;;;;;;19.32;27.11;99968.22;5046845;28;40724;-74
2021/04/08 09:16:20;;;;;;;10.77;7.57;;;;;;;18.94;27.49;99961.41;5045108;28;42443;-74
2021/04/08 09:18:58;;;;;;;9.20;6.90;;;;;;;18.26;27.34;99959.59;5063233;28;43158;-74
2021/04/08 09:21:25;;;;;;;5.67;3.37;;;;;;;17.75;28.88;99959.03;5031966;28;40983;-74
2021/04/08 09:24:10;;;;;;;4.53;2.67;;;;;;;17.57;28.95;99953.16;5055276;28;40880;-74
2021/04/08 09:26:39;;;;;;;4.17;2.63;;;;;;;17.47;28.38;99965.53;5061696;28;42981;-73
2021/04/08 09:29:07;;;;;;;4.60;2.40;;;;;;;18.01;28.36;99958.88;5048884;28;43459;-74
2021/04/08 09:31:36;;;;;;;3.50;2.60;;;;;;;18.71;27.97;99961.53;5049799;28;42839;-74
2021/04/08 09:34:04;;;;;;;4.90;3.40;;;;;;;19.28;27.06;99953.38;5051855;28;40868;-75
2021/04/08 09:36:37;;;;;;;6.03;2.73;;;;;;;19.00;27.04;99957.41;5069371;28;41137;-74
2021/04/08 09:39:26;;;;;;;5.10;2.67;;;;;;;18.69;27.88;99961.63;5070255;28;42511;-74
2021/04/08 09:41:58;;;;;;;4.10;2.60;;;;;;;19.16;28.06;99957.03;5057532;28;42617;-73
2021/04/08 09:44:27;;;;;;;4.17;3.20;;;;;;;20.02;27.10;99952.56;5066202;28;40358;-73
2021/04/08 09:46:57;;;;;;;4.97;2.73;;;;;;;20.76;26.32;99957.91;5069446;28;42336;-74
2021/04/08 09:49:51;;;;;;;4.60;3.00;;;;;;;21.98;23.29;99976.59;5068951;28;42668;-75
2021/04/08 09:52:18;;;;;;;4.90;3.40;;;;;;;23.46;22.68;99982.28;5031370;28;42695;-73
2021/04/08 09:54:52;;;;;;;4.57;3.07;;;;;;;24.55;20.61;99992.03;5048806;28;38822;-74
2021/04/08 09:57:37;;;;;;;5.03;3.47;;;;;;;24.24;20.02;99988.88;5048167;28;41587;-74
2021/04/08 10:00:12;;;;;;;4.70;2.80;;;;;;;23.42;21.14;99991.69;5079415;28;43331;-74
2021/04/08 10:02:55;;;;;;;4.00;2.77;;;;;;;22.21;22.29;99981.59;5069167;28;42308;-76
2021/04/08 10:05:22;;;;;;;4.97;3.10;;;;;;;21.10;23.81;99970.13;5085904;28;40070;-75
2021/04/08 10:07:54;;;;;;;4.93;3.10;;;;;;;19.80;24.32;99970.59;5055938;28;41543;-74
2021/04/08 10:10:25;;;;;;;3.50;2.63;;;;;;;18.82;25.29;99973.13;5070487;28;42547;-74
2021/04/08 10:12:52;;;;;;;4.63;2.40;;;;;;;17.60;25.83;99902.03;5069302;28;42880;-74
2021/04/08 10:15:34;;;;;;;5.07;2.90;;;;;;;17.24;27.54;99943.09;5057084;28;40770;-73
2021/04/08 10:18:02;;;;;;;4.93;3.53;;;;;;;16.71;27.77;99952.28;5047339;28;42447;-74
2021/04/08 10:20:39;;;;;;;5.83;2.97;;;;;;;16.34;28.77;99939.72;5065057;28;42425;-77
2021/04/08 10:23:07;;;;;;;4.77;2.87;;;;;;;16.09;29.59;99936.06;5054148;28;42965;-74
2021/04/08 10:25:34;;;;;;;4.97;3.27;;;;;;;15.61;29.10;99904.63;5085206;28;40398;-75
2021/04/08 10:28:02;;;;;;;5.10;3.03;;;;;;;15.35;29.82;99933.88;5049171;28;41775;-74
2021/04/08 10:30:35;;;;;;;5.73;2.60;;;;;;;14.86;30.44;99940.63;5061274;28;43521;-74
2021/04/08 10:33:16;;;;;;;4.70;2.60;;;;;;;14.21;30.75;99938.38;5050128;28;42251;-74
2021/04/08 10:35:43;;;;;;;4.83;2.47;;;;;;;13.79;30.72;99931.13;5068690;28;38610;-72
2021/04/08 10:38:12;;;;;;;6.43;2.87;;;;;;;13.43;32.29;99919.94;5047734;28;42463;-74
2021/04/08 10:40:47;;;;;;;4.33;2.40;;;;;;;13.11;33.09;99911.91;5064919;28;42428;-72
2021/04/08 10:43:16;;;;;;;4.43;2.50;;;;;;;12.92;33.21;99903.28;5046975;28;41245;-73
2021/04/08 10:45:51;;;;;;;4.00;2.80;;;;;;;12.71;33.98;99899.16;5058628;28;40631;-71
2021/04/08 10:48:20;;;;;;;4.97;2.77;;;;;;;12.77;34.38;99890.81;5068511;28;41473;-74
2021/04/08 10:50:47;;;;;;;5.53;2.63;;;;;;;13.11;34.14;99890.66;5069353;28;43404;-75
2021/04/08 10:53:17;;;;;;;9.93;2.50;;;;;;;13.62;33.48;99907.28;5068119;28;42613;-73
2021/04/08 10:55:45;;;;;;;4.07;2.60;;;;;;;14.20;32.96;99904.69;5029276;28;40110;-74
2021/04/08 10:58:20;;;;;;;6.03;2.30;;;;;;;14.59;31.88;99905.84;5047541;28;42042;-73
2021/04/08 11:00:47;;;;;;;6.90;2.83;;;;;;;14.72;30.83;99913.00;5047712;28;42359;-74
2021/04/08 11:03:15;;;;;;;5.37;1.80;;;;;;;14.62;29.81;99919.88;5048205;28;42952;-74
2021/04/08 11:05:43;;;;;;;3.47;1.90;;;;;;;14.42;29.46;99922.91;5055119;28;40697;-73
2021/04/08 11:08:11;;;;;;;4.33;2.07;;;;;;;14.28;29.90;99928.19;5043660;28;41922;-73
2021/04/08 11:10:38;;;;;;;3.53;2.17;;;;;;;14.01;30.98;99930.69;5032404;28;43543;-76
2021/04/08 11:13:06;;;;;;;4.40;2.50;;;;;;;13.74;31.19;99925.19;5047814;28;42267;-74
2021/04/08 11:15:35;;;;;;;4.27;2.43;;;;;;;13.59;30.90;99923.44;5060506;28;40034;-74
2021/04/08 11:18:07;;;;;;;6.23;2.87;;;;;;;13.53;31.31;99919.31;5028023;28;41865;-74
2021/04/08 11:20:35;;;;;;;4.57;2.50;;;;;;;13.59;31.41;99918.97;5029049;28;42582;-74
2021/04/08 11:23:05;;;;;;;3.00;2.00;;;;;;;13.84;31.48;99923.72;5082136;28;42905;-73
2021/04/08 11:25:32;;;;;;;5.27;2.20;;;;;;;14.51;31.91;99903.69;5069344;28;40086;-74
2021/04/08 11:28:02;;;;;;;3.67;2.43;;;;;;;15.24;29.78;99924.84;5060099;28;41473;-74
2021/04/08 11:30:31;;;;;;;5.03;2.60;;;;;;;16.12;30.03;99927.84;5047257;28;42748;-74
2021/04/08 11:33:00;;;;;;;7.00;3.23;;;;;;;16.98;29.18;99924.53;5063207;28;42290;-73
2021/04/08 11:35:31;;;;;;;4.10;2.60;;;;;;;17.13;28.14;99924.28;5048641;28;40684;-74
2021/04/08 11:38:07;;;;;;;3.60;2.33;;;;;;;17.12;28.09;99924.41;5047177;28;42302;-73
2021/04/08 11:40:35;;;;;;;3.60;2.07;;;;;;;17.18;28.33;99929.31;5046771;28;42373;-74
2021/04/08 11:43:18;;;;;;;3.80;2.10;;;;;;;16.99;27.04;99948.50;5062573;28;42735;-73
2021/04/08 11:45:45;;;;;;;3.30;1.50;;;;;;;16.85;27.36;99933.44;5065185;28;39554;-74
2021/04/08 11:48:12;;;;;;;2.03;1.80;;;;;;;16.67;27.70;99937.44;5067772;28;41542;-74
2021/04/08 11:50:42;;;;;;;2.07;1.80;;;;;;;16.43;27.96;99931.94;5065785;28;42713;-71